createdAt,value
2023-07-24T00:01:57.407Z,16.39
2023-07-24T00:04:24.686Z,16.37
2023-07-24T00:06:53.321Z,16.42
2023-07-24T00:09:20.501Z,16.45
2023-07-24T00:11:47.799Z,16.45
2023-07-24T00:14:16.423Z,16.49
2023-07-24T00:16:43.710Z,16.48
2023-07-24T00:19:10.977Z,16.49
2023-07-24T00:21:38.203Z,16.50
2023-07-24T00:24:07.016Z,16.45
2023-07-24T00:26:34.282Z,16.42
2023-07-24T00:29:01.529Z,16.40
2023-07-24T00:31:28.754Z,16.33
2023-07-24T00:33:55.941Z,16.25
2023-07-24T00:36:23.254Z,16.22
2023-07-24T00:38:50.482Z,16.11
2023-07-24T00:41:19.062Z,16.05
2023-07-24T00:43:46.282Z,15.98
2023-07-24T00:46:14.504Z,15.92
2023-07-24T00:48:42.338Z,15.89
2023-07-24T00:51:09.542Z,15.84
2023-07-24T00:53:36.865Z,15.89
2023-07-24T00:56:05.574Z,15.83
2023-07-24T00:58:34.421Z,15.74
2023-07-24T01:01:01.721Z,15.77
2023-07-24T01:03:34.302Z,15.75
2023-07-24T01:06:02.930Z,15.78
2023-07-24T01:08:30.393Z,15.80
2023-07-24T01:11:00.903Z,15.79
2023-07-24T01:13:33.684Z,15.77
2023-07-24T01:16:09.907Z,15.74
2023-07-24T01:18:39.777Z,15.75
2023-07-24T01:21:10.060Z,15.71
2023-07-24T01:23:51.514Z,15.73
2023-07-24T01:26:20.593Z,15.76
2023-07-24T01:28:47.809Z,15.73
2023-07-24T01:31:14.980Z,15.73
2023-07-24T01:33:43.810Z,15.73
2023-07-24T01:36:11.866Z,15.72
2023-07-24T01:38:39.376Z,15.67
2023-07-24T01:41:07.060Z,15.68
2023-07-24T01:43:35.820Z,15.65
2023-07-24T01:46:03.073Z,15.65
2023-07-24T01:48:30.322Z,15.59
2023-07-24T01:50:57.538Z,15.52
2023-07-24T01:53:24.751Z,15.50
2023-07-24T01:55:51.985Z,15.47
2023-07-24T01:58:19.241Z,15.47
2023-07-24T02:00:48.435Z,15.45
2023-07-24T02:03:15.827Z,15.45
2023-07-24T02:05:50.392Z,15.48
2023-07-24T02:08:17.630Z,15.46
2023-07-24T02:10:45.009Z,15.40
2023-07-24T02:13:12.179Z,15.36
2023-07-24T02:15:50.150Z,15.34
2023-07-24T02:18:17.454Z,15.32
2023-07-24T02:20:49.997Z,15.32
2023-07-24T02:23:18.580Z,15.28
2023-07-24T02:25:45.884Z,15.24
2023-07-24T02:28:13.090Z,15.21
2023-07-24T02:30:40.409Z,15.21
2023-07-24T02:33:09.037Z,15.21
2023-07-24T02:35:39.817Z,15.20
2023-07-24T02:38:08.636Z,15.16
2023-07-24T02:40:36.936Z,15.13
2023-07-24T02:43:04.129Z,15.13
2023-07-24T02:45:34.647Z,15.11
2023-07-24T02:48:02.046Z,15.14
2023-07-24T02:50:30.682Z,15.10
2023-07-24T02:52:57.891Z,15.13
2023-07-24T02:55:25.265Z,15.10
2023-07-24T02:57:52.739Z,15.05
2023-07-24T03:00:20.112Z,15.03
2023-07-24T03:02:47.359Z,15.02
2023-07-24T03:05:14.670Z,14.96
2023-07-24T03:07:43.302Z,15.01
2023-07-24T03:10:10.931Z,15.01
2023-07-24T03:12:38.233Z,15.07
2023-07-24T03:15:06.593Z,15.11
2023-07-24T03:17:33.896Z,15.12
2023-07-24T03:20:09.265Z,15.16
2023-07-24T03:22:36.549Z,15.16
2023-07-24T03:25:05.777Z,15.24
2023-07-24T03:27:33.028Z,15.23
2023-07-24T03:30:00.419Z,15.25
2023-07-24T03:32:27.816Z,15.23
2023-07-24T03:34:55.080Z,15.25
2023-07-24T03:37:22.327Z,15.27
2023-07-24T03:39:50.202Z,15.29
2023-07-24T03:42:27.538Z,15.29
2023-07-24T03:44:55.604Z,15.26
2023-07-24T03:47:23.077Z,15.08
2023-07-24T03:49:50.432Z,15.07
2023-07-24T03:52:17.707Z,14.97
2023-07-24T03:54:45.217Z,15.08
2023-07-24T03:57:12.459Z,15.05
2023-07-24T03:59:41.013Z,15.01
2023-07-24T04:02:10.676Z,15.00
2023-07-24T04:04:38.369Z,15.05
2023-07-24T04:07:05.881Z,15.10
2023-07-24T04:09:33.331Z,15.11
2023-07-24T04:12:01.957Z,15.15
2023-07-24T04:14:29.213Z,15.10
2023-07-24T04:16:57.846Z,15.06
2023-07-24T04:19:25.039Z,15.05
2023-07-24T04:21:52.317Z,15.10
2023-07-24T04:24:19.606Z,15.12
2023-07-24T04:26:47.339Z,15.13
2023-07-24T04:29:14.530Z,15.13
2023-07-24T04:31:41.727Z,15.18
2023-07-24T04:34:10.283Z,15.25
2023-07-24T04:36:37.488Z,15.29
2023-07-24T04:39:04.665Z,15.39
2023-07-24T04:41:31.939Z,15.46
2023-07-24T04:43:59.145Z,15.52
2023-07-24T04:46:26.417Z,15.66
2023-07-24T04:48:53.676Z,15.67
2023-07-24T04:51:22.193Z,15.71
2023-07-24T04:53:49.428Z,15.84
2023-07-24T04:56:16.686Z,15.93
2023-07-24T04:58:43.952Z,15.97
2023-07-24T05:01:11.151Z,16.17
2023-07-24T05:03:38.398Z,16.32
2023-07-24T05:06:05.631Z,16.34
2023-07-24T05:08:34.318Z,16.54
2023-07-24T05:11:01.559Z,16.68
2023-07-24T05:13:28.823Z,16.58
2023-07-24T05:15:56.030Z,16.61
2023-07-24T05:18:23.348Z,16.65
2023-07-24T05:20:50.720Z,16.81
2023-07-24T05:23:18.188Z,16.79
2023-07-24T05:25:46.883Z,16.85
2023-07-24T05:28:14.056Z,16.89
2023-07-24T05:30:41.279Z,17.03
2023-07-24T05:33:08.517Z,17.05
2023-07-24T05:35:37.343Z,17.12
2023-07-24T05:38:04.584Z,17.02
2023-07-24T05:40:31.876Z,17.11
2023-07-24T05:43:00.462Z,17.00
2023-07-24T05:45:27.817Z,17.10
2023-07-24T05:47:55.079Z,16.97
2023-07-24T05:50:22.327Z,17.08
2023-07-24T05:52:49.541Z,17.03
2023-07-24T05:55:16.775Z,16.89
2023-07-24T05:57:43.967Z,17.15
2023-07-24T06:00:13.266Z,17.20
2023-07-24T06:02:40.440Z,17.37
2023-07-24T06:05:08.515Z,17.54
2023-07-24T06:07:35.802Z,17.65
2023-07-24T06:10:03.367Z,17.71
2023-07-24T06:12:30.544Z,17.89
2023-07-24T06:14:57.789Z,18.12
2023-07-24T06:17:26.424Z,18.30
2023-07-24T06:19:53.703Z,18.43
2023-07-24T06:22:20.973Z,18.55
2023-07-24T06:24:48.206Z,18.55
2023-07-24T06:27:15.493Z,18.71
2023-07-24T06:29:42.986Z,18.84
2023-07-24T06:32:10.233Z,18.89
2023-07-24T06:34:38.841Z,18.81
2023-07-24T06:37:17.103Z,19.01
2023-07-24T06:39:49.204Z,19.07
2023-07-24T06:42:16.434Z,19.06
2023-07-24T06:44:43.690Z,19.16
2023-07-24T06:47:10.957Z,19.20
2023-07-24T06:49:39.560Z,19.34
2023-07-24T06:52:07.432Z,19.33
2023-07-24T06:54:34.656Z,19.36
2023-07-24T06:57:01.915Z,19.46
2023-07-24T06:59:29.152Z,19.51
2023-07-24T07:01:56.415Z,19.57
2023-07-24T07:04:23.633Z,19.54
2023-07-24T07:06:52.295Z,19.75
2023-07-24T07:09:19.713Z,19.86
2023-07-24T07:11:46.939Z,20.06
2023-07-24T07:14:14.244Z,20.35
2023-07-24T07:16:41.638Z,20.34
2023-07-24T07:19:08.862Z,20.43
2023-07-24T07:21:36.351Z,20.44
2023-07-24T07:24:05.551Z,20.59
2023-07-24T07:26:32.993Z,20.88
2023-07-24T07:29:00.429Z,20.99
2023-07-24T07:31:27.656Z,20.95
2023-07-24T07:33:54.966Z,21.07
2023-07-24T07:36:22.309Z,21.18
2023-07-24T07:38:49.780Z,21.31
2023-07-24T07:41:18.428Z,21.50
2023-07-24T07:43:45.662Z,21.78
2023-07-24T07:46:12.969Z,21.77
2023-07-24T07:48:40.175Z,21.88
2023-07-24T07:51:07.419Z,22.00
2023-07-24T07:53:34.655Z,21.84
2023-07-24T07:56:01.997Z,22.12
2023-07-24T07:58:31.020Z,22.30
2023-07-24T08:00:58.320Z,22.65
2023-07-24T08:03:25.746Z,22.78
2023-07-24T08:05:53.044Z,23.16
2023-07-24T08:08:20.227Z,23.53
2023-07-24T08:10:47.446Z,23.84
2023-07-24T08:13:14.789Z,24.24
2023-07-24T08:15:43.372Z,24.44
2023-07-24T08:18:10.672Z,24.42
2023-07-24T08:20:38.364Z,24.41
2023-07-24T08:23:05.627Z,24.59
2023-07-24T08:25:32.940Z,24.83
2023-07-24T08:28:05.727Z,25.03
2023-07-24T08:30:33.434Z,24.59
2023-07-24T08:33:02.056Z,24.86
2023-07-24T08:35:30.111Z,25.23
2023-07-24T08:37:57.574Z,25.25
2023-07-24T08:40:25.039Z,25.19
2023-07-24T08:42:53.607Z,24.96
2023-07-24T08:45:21.377Z,25.37
2023-07-24T08:47:50.882Z,25.36
2023-07-24T08:50:20.562Z,25.51
2023-07-24T08:52:47.886Z,25.43
2023-07-24T08:55:15.900Z,25.51
2023-07-24T08:57:43.168Z,25.61
2023-07-24T09:00:11.620Z,25.54
2023-07-24T09:02:39.119Z,25.56
2023-07-24T09:05:06.710Z,25.36
2023-07-24T09:07:35.296Z,25.41
2023-07-24T09:10:02.595Z,25.36
2023-07-24T09:12:29.794Z,25.33
2023-07-24T09:15:06.221Z,25.26
2023-07-24T09:17:34.404Z,25.41
2023-07-24T09:20:01.797Z,25.19
2023-07-24T09:22:29.072Z,25.47
2023-07-24T09:24:59.109Z,25.55
2023-07-24T09:27:28.591Z,25.57
2023-07-24T09:29:56.438Z,25.53
2023-07-24T09:32:24.855Z,25.68
2023-07-24T09:34:53.149Z,26.04
2023-07-24T09:37:27.611Z,26.18
2023-07-24T09:39:55.207Z,26.49
2023-07-24T09:42:34.067Z,26.65
2023-07-24T09:45:02.264Z,26.95
2023-07-24T09:47:52.984Z,26.94
2023-07-24T09:50:17.022Z,26.50
2023-07-24T09:52:45.459Z,27.09
2023-07-24T09:55:19.987Z,26.88
2023-07-24T09:57:50.989Z,27.48
2023-07-24T10:00:18.482Z,27.52
2023-07-24T10:02:45.980Z,27.23
2023-07-24T10:05:13.439Z,27.38
2023-07-24T10:07:41.490Z,27.17
2023-07-24T10:10:09.601Z,26.98
2023-07-24T10:12:37.864Z,26.92
2023-07-24T10:15:08.000Z,26.69
2023-07-24T10:17:36.809Z,26.78
2023-07-24T10:20:05.958Z,27.10
2023-07-24T10:22:33.598Z,27.21
2023-07-24T10:25:01.049Z,26.95
2023-07-24T10:27:28.325Z,27.22
2023-07-24T10:30:00.130Z,27.09
2023-07-24T10:32:28.842Z,27.14
2023-07-24T10:35:00.853Z,26.84
2023-07-24T10:37:35.537Z,27.26
2023-07-24T10:40:03.630Z,27.38
2023-07-24T10:42:31.389Z,27.85
2023-07-24T10:45:06.358Z,27.83
2023-07-24T10:47:35.200Z,27.38
2023-07-24T10:50:02.883Z,27.42
2023-07-24T10:52:30.821Z,27.35
2023-07-24T10:55:00.776Z,27.01
2023-07-24T10:57:28.400Z,27.39
2023-07-24T10:59:55.728Z,27.46
2023-07-24T11:02:23.323Z,27.34
2023-07-24T11:04:52.060Z,27.24
2023-07-24T11:07:19.821Z,27.44
2023-07-24T11:09:47.060Z,27.11
2023-07-24T11:12:15.971Z,27.49
2023-07-24T11:14:50.236Z,27.46
2023-07-24T11:17:18.208Z,27.16
2023-07-24T11:19:45.427Z,27.14
2023-07-24T11:22:15.033Z,27.51
2023-07-24T11:24:44.139Z,27.17
2023-07-24T11:27:13.882Z,27.77
2023-07-24T11:29:41.088Z,27.17
2023-07-24T11:32:08.663Z,27.59
2023-07-24T11:34:36.207Z,27.18
2023-07-24T11:37:03.947Z,27.35
2023-07-24T11:39:32.546Z,27.33
2023-07-24T11:42:01.594Z,27.62
2023-07-24T11:44:29.816Z,27.29
2023-07-24T11:47:03.579Z,27.26
2023-07-24T11:49:31.552Z,26.86
2023-07-24T11:52:03.827Z,26.86
2023-07-24T11:54:35.272Z,27.39
2023-07-24T11:57:02.577Z,27.11
2023-07-24T11:59:37.752Z,27.30
2023-07-24T12:02:05.675Z,27.18
2023-07-24T12:04:33.011Z,26.88
2023-07-24T12:07:00.296Z,26.66
2023-07-24T12:09:32.271Z,26.92
2023-07-24T12:12:00.186Z,27.05
2023-07-24T12:14:27.358Z,27.49
2023-07-24T12:17:01.668Z,27.70
2023-07-24T12:19:28.996Z,27.92
2023-07-24T12:21:56.515Z,27.29
2023-07-24T12:24:24.052Z,27.46
2023-07-24T12:26:52.629Z,27.84
2023-07-24T12:29:19.821Z,27.88
2023-07-24T12:31:47.010Z,27.62
2023-07-24T12:34:14.241Z,27.44
2023-07-24T12:36:41.475Z,27.41
2023-07-24T12:39:08.661Z,27.56
2023-07-24T12:41:35.936Z,28.02
2023-07-24T12:44:04.772Z,28.48
2023-07-24T12:46:32.073Z,28.61
2023-07-24T12:48:59.348Z,28.36
2023-07-24T12:51:26.655Z,28.43
2023-07-24T12:54:03.889Z,28.33
2023-07-24T12:56:38.947Z,28.45
2023-07-24T12:59:07.742Z,28.80
2023-07-24T13:01:35.086Z,28.60
2023-07-24T13:04:02.511Z,28.15
2023-07-24T13:06:29.913Z,27.57
2023-07-24T13:08:57.392Z,28.28
2023-07-24T13:11:24.634Z,28.67
2023-07-24T13:13:51.871Z,28.71
2023-07-24T13:16:20.586Z,28.61
2023-07-24T13:18:47.879Z,28.48
2023-07-24T13:21:15.203Z,28.16
2023-07-24T13:23:42.786Z,27.70
2023-07-24T13:26:10.028Z,27.76
2023-07-24T13:28:37.370Z,28.47
2023-07-24T13:31:12.715Z,28.41
2023-07-24T13:33:42.777Z,28.25
2023-07-24T13:36:10.297Z,28.06
2023-07-24T13:38:37.914Z,28.37
2023-07-24T13:41:05.326Z,28.42
2023-07-24T13:43:33.771Z,28.56
2023-07-24T13:46:01.179Z,29.26
2023-07-24T13:48:28.585Z,29.30
2023-07-24T13:50:57.356Z,28.99
2023-07-24T13:53:24.732Z,28.95
2023-07-24T13:55:52.214Z,28.27
2023-07-24T13:58:19.449Z,28.37
2023-07-24T14:00:46.696Z,28.20
2023-07-24T14:03:14.073Z,27.61
2023-07-24T14:05:41.342Z,28.37
2023-07-24T14:08:10.042Z,28.85
2023-07-24T14:10:37.365Z,28.64
2023-07-24T14:13:04.745Z,28.46
2023-07-24T14:15:31.957Z,27.71
2023-07-24T14:17:59.273Z,27.87
2023-07-24T14:20:26.553Z,27.50
2023-07-24T14:22:53.779Z,28.04
2023-07-24T14:25:22.446Z,27.64
2023-07-24T14:27:49.631Z,27.26
2023-07-24T14:30:17.240Z,27.09
2023-07-24T14:32:44.567Z,26.91
2023-07-24T14:35:12.068Z,26.56
2023-07-24T14:37:39.288Z,26.79
2023-07-24T14:40:07.721Z,26.40
2023-07-24T14:42:36.247Z,26.53
2023-07-24T14:45:03.942Z,26.32
2023-07-24T14:47:31.211Z,26.78
2023-07-24T14:49:58.908Z,26.83
2023-07-24T14:52:26.186Z,27.05
2023-07-24T14:54:53.454Z,26.75
2023-07-24T14:57:25.631Z,25.65
2023-07-24T14:59:54.970Z,24.27
2023-07-24T15:02:22.310Z,24.07
2023-07-24T15:04:49.899Z,24.78
2023-07-24T15:07:17.795Z,25.18
2023-07-24T15:09:45.659Z,25.61
2023-07-24T15:12:12.978Z,25.90
2023-07-24T15:14:40.245Z,25.90
2023-07-24T15:17:08.900Z,25.97
2023-07-24T15:19:36.092Z,26.00
2023-07-24T15:22:03.299Z,26.22
2023-07-24T15:24:30.492Z,26.64
2023-07-24T15:26:57.710Z,26.56
2023-07-24T15:29:24.951Z,26.32
2023-07-24T15:31:52.246Z,26.51
2023-07-24T15:34:20.890Z,26.43
2023-07-24T15:36:48.079Z,25.48
2023-07-24T15:39:15.308Z,24.66
2023-07-24T15:41:42.605Z,24.01
2023-07-24T15:44:09.842Z,23.83
2023-07-24T15:46:37.162Z,23.54
2023-07-24T15:49:04.466Z,23.56
2023-07-24T15:51:33.460Z,23.16
2023-07-24T15:54:00.991Z,23.10
2023-07-24T15:56:28.184Z,22.69
2023-07-24T15:58:55.387Z,22.06
2023-07-24T16:01:22.654Z,21.80
2023-07-24T16:03:49.909Z,21.76
2023-07-24T16:06:17.122Z,21.65
2023-07-24T16:08:45.710Z,21.48
2023-07-24T16:11:12.979Z,21.29
2023-07-24T16:13:41.722Z,20.90
2023-07-24T16:16:09.325Z,20.99
2023-07-24T16:18:37.093Z,20.16
2023-07-24T16:21:04.519Z,18.74
2023-07-24T16:23:31.770Z,17.75
2023-07-24T16:26:00.382Z,17.35
2023-07-24T16:28:27.721Z,17.49
2023-07-24T16:30:54.974Z,17.57
2023-07-24T16:33:23.989Z,18.08
2023-07-24T16:35:51.870Z,18.66
2023-07-24T16:38:19.183Z,18.88
2023-07-24T16:40:46.401Z,19.05
2023-07-24T16:43:14.942Z,19.28
2023-07-24T16:45:42.795Z,19.41
2023-07-24T16:48:10.316Z,19.52
2023-07-24T16:50:37.608Z,19.71
2023-07-24T16:53:04.832Z,19.77
2023-07-24T16:55:32.111Z,19.85
2023-07-24T16:57:59.404Z,19.80
2023-07-24T17:00:27.968Z,19.88
2023-07-24T17:02:56.297Z,19.90
2023-07-24T17:05:23.744Z,19.84
2023-07-24T17:07:50.974Z,19.92
2023-07-24T17:10:19.140Z,19.89
2023-07-24T17:12:46.516Z,19.89
2023-07-24T17:15:13.949Z,19.92
2023-07-24T17:17:42.595Z,19.88
2023-07-24T17:20:10.265Z,19.74
2023-07-24T17:22:37.553Z,19.96
2023-07-24T17:25:05.276Z,20.29
2023-07-24T17:27:32.572Z,20.13
2023-07-24T17:29:59.834Z,19.97
2023-07-24T17:32:27.099Z,19.75
2023-07-24T17:34:55.789Z,19.66
2023-07-24T17:37:36.490Z,19.52
2023-07-24T17:40:06.590Z,19.46
2023-07-24T17:42:33.903Z,19.38
2023-07-24T17:45:01.142Z,19.36
2023-07-24T17:47:28.473Z,19.30
2023-07-24T17:50:06.612Z,19.23
2023-07-24T17:52:35.737Z,19.20
2023-07-24T17:55:03.931Z,19.22
2023-07-24T17:57:31.158Z,19.10
2023-07-24T17:59:58.356Z,19.02
2023-07-24T18:02:25.684Z,18.91
2023-07-24T18:04:52.918Z,18.87
2023-07-24T18:07:21.559Z,18.81
2023-07-24T18:09:48.838Z,18.72
2023-07-24T18:12:16.451Z,18.71
2023-07-24T18:14:43.807Z,18.84
2023-07-24T18:17:11.152Z,18.82
2023-07-24T18:19:38.348Z,18.87
2023-07-24T18:22:05.629Z,18.61
2023-07-24T18:24:34.290Z,18.39
2023-07-24T18:27:01.515Z,18.57
2023-07-24T18:29:28.936Z,18.59
2023-07-24T18:31:56.391Z,18.60
2023-07-24T18:34:23.613Z,18.57
2023-07-24T18:36:50.950Z,18.52
2023-07-24T18:39:18.215Z,18.43
2023-07-24T18:41:47.830Z,18.43
2023-07-24T18:44:15.212Z,18.36
2023-07-24T18:46:42.587Z,18.35
2023-07-24T18:49:09.900Z,18.33
2023-07-24T18:51:37.083Z,18.29
2023-07-24T18:54:04.320Z,18.28
2023-07-24T18:56:31.590Z,18.26
2023-07-24T18:59:00.151Z,18.25
2023-07-24T19:01:27.543Z,18.28
2023-07-24T19:03:54.785Z,18.25
2023-07-24T19:06:22.204Z,18.26
2023-07-24T19:08:49.837Z,18.24
2023-07-24T19:11:17.871Z,18.25
2023-07-24T19:13:45.359Z,18.21
2023-07-24T19:16:14.006Z,18.10
2023-07-24T19:18:41.327Z,17.97
2023-07-24T19:21:08.576Z,17.91
2023-07-24T19:23:36.026Z,17.80
2023-07-24T19:26:03.270Z,17.67
2023-07-24T19:28:30.551Z,17.53
2023-07-24T19:30:57.785Z,17.38
2023-07-24T19:33:26.449Z,17.26
2023-07-24T19:35:58.547Z,17.17
2023-07-24T19:38:25.744Z,17.08
2023-07-24T19:40:56.599Z,16.95
2023-07-24T19:43:23.840Z,16.89
2023-07-24T19:45:51.272Z,16.77
2023-07-24T19:48:18.612Z,16.71
2023-07-24T19:50:51.343Z,16.70
2023-07-24T19:53:18.836Z,16.68
2023-07-24T19:55:47.102Z,16.66
2023-07-24T19:58:26.533Z,16.61
2023-07-24T20:01:00.047Z,16.57
2023-07-24T20:03:27.580Z,16.58
2023-07-24T20:05:58.087Z,16.50
2023-07-24T20:08:27.827Z,16.49
2023-07-24T20:10:56.181Z,16.46
2023-07-24T20:13:24.002Z,16.41
2023-07-24T20:15:51.476Z,16.37
2023-07-24T20:18:18.749Z,16.28
2023-07-24T20:20:46.122Z,16.18
2023-07-24T20:23:15.966Z,16.10
2023-07-24T20:25:47.762Z,16.02
2023-07-24T20:28:15.058Z,15.90
2023-07-24T20:30:42.312Z,15.82
2023-07-24T20:33:09.678Z,15.84
2023-07-24T20:35:36.891Z,15.83
2023-07-24T20:38:05.406Z,15.77
2023-07-24T20:40:34.921Z,15.67
2023-07-24T20:43:03.189Z,15.58
2023-07-24T20:45:30.584Z,15.50
2023-07-24T20:47:58.031Z,15.43
2023-07-24T20:50:25.299Z,15.29
2023-07-24T20:52:52.579Z,15.23
2023-07-24T20:55:19.836Z,15.12
2023-07-24T20:57:48.453Z,15.11
2023-07-24T21:00:16.140Z,15.05
2023-07-24T21:02:43.650Z,15.01
2023-07-24T21:05:11.058Z,14.93
2023-07-24T21:07:38.265Z,14.89
2023-07-24T21:10:06.425Z,14.87
2023-07-24T21:12:33.646Z,14.79
2023-07-24T21:15:02.932Z,14.78
2023-07-24T21:17:30.224Z,14.73
2023-07-24T21:19:57.445Z,14.70
2023-07-24T21:22:24.669Z,14.63
2023-07-24T21:24:51.883Z,14.56
2023-07-24T21:27:19.133Z,14.56
2023-07-24T21:29:46.369Z,14.53
2023-07-24T21:32:14.986Z,14.48
2023-07-24T21:34:42.176Z,14.43
2023-07-24T21:37:09.373Z,14.35
2023-07-24T21:39:36.565Z,14.31
2023-07-24T21:42:04.289Z,14.27
2023-07-24T21:44:31.459Z,14.25
2023-07-24T21:46:58.677Z,14.21
2023-07-24T21:49:27.294Z,14.17
2023-07-24T21:51:54.527Z,14.16
2023-07-24T21:54:21.724Z,14.16
2023-07-24T21:56:48.997Z,14.15
2023-07-24T21:59:16.303Z,14.08
2023-07-24T22:01:43.615Z,14.08
2023-07-24T22:04:10.876Z,14.04
2023-07-24T22:06:39.482Z,14.01
2023-07-24T22:09:06.680Z,13.99
2023-07-24T22:11:34.231Z,13.99
2023-07-24T22:14:01.595Z,13.94
2023-07-24T22:16:28.828Z,13.92
2023-07-24T22:18:56.033Z,13.92
2023-07-24T22:21:23.230Z,13.90
2023-07-24T22:23:51.838Z,13.88
2023-07-24T22:26:19.558Z,13.88
2023-07-24T22:28:46.805Z,13.83
2023-07-24T22:31:14.060Z,13.77
2023-07-24T22:33:41.350Z,13.75
2023-07-24T22:36:08.609Z,13.69
2023-07-24T22:38:35.807Z,13.65
2023-07-24T22:41:11.257Z,13.64
2023-07-24T22:43:38.496Z,13.63
2023-07-24T22:46:05.798Z,13.67
2023-07-24T22:48:33.099Z,13.69
2023-07-24T22:51:00.343Z,13.68
2023-07-24T22:53:27.606Z,13.68
2023-07-24T22:55:54.882Z,13.69
2023-07-24T22:58:23.927Z,13.71
2023-07-24T23:00:51.148Z,13.70
2023-07-24T23:03:18.460Z,13.72
2023-07-24T23:05:45.743Z,13.74
2023-07-24T23:08:12.970Z,13.74
2023-07-24T23:10:40.238Z,13.81
2023-07-24T23:13:07.463Z,13.84
2023-07-24T23:15:36.051Z,13.88
2023-07-24T23:18:03.579Z,13.89
2023-07-24T23:20:30.877Z,13.94
2023-07-24T23:22:58.433Z,14.02
2023-07-24T23:25:25.621Z,14.10
2023-07-24T23:27:52.849Z,14.14
2023-07-24T23:30:20.051Z,14.16
2023-07-24T23:32:48.705Z,14.21
2023-07-24T23:35:16.081Z,14.22
2023-07-24T23:37:43.300Z,14.27
2023-07-24T23:40:11.092Z,14.34
2023-07-24T23:42:38.318Z,14.36
2023-07-24T23:45:06.364Z,14.37
2023-07-24T23:47:33.628Z,14.39
2023-07-24T23:50:02.313Z,14.43
2023-07-24T23:52:29.483Z,14.48
2023-07-24T23:54:56.751Z,14.52
2023-07-24T23:57:24.107Z,14.58
2023-07-24T23:59:51.281Z,14.59
